Time;durP1;ratioP1;P1;durP2;ratioP2;P2;SDS_P1;SDS_P2;PMS_P1;PMS_P2;Temp;Humidity;BMP_temperature;BMP_pressure;BME280_temperature;BME280_humidity;BME280_pressure;Samples;Min_cycle;Max_cycle;Signal;HPM_P1;HPM_P2
2022/07/08 00:02:06;;;;;;;9.32;8.73;;;;;;;;;;5046585;28;20099;-62
2022/07/08 00:04:32;;;;;;;8.45;7.95;;;;;;;;;;5044100;28;20036;-62
2022/07/08 00:06:57;;;;;;;9.27;8.68;;;;;;;;;;5044529;28;20126;-62
2022/07/08 00:09:23;;;;;;;9.10;8.50;;;;;;;;;;5045850;28;20036;-62
2022/07/08 00:11:48;;;;;;;9.18;8.57;;;;;;;;;;5044946;28;20332;-62
2022/07/08 00:14:14;;;;;;;9.57;8.90;;;;;;;;;;5044865;28;20359;-62
2022/07/08 00:16:40;;;;;;;9.20;8.60;;;;;;;;;;5044475;28;20111;-62
2022/07/08 00:19:07;;;;;;;9.20;8.60;;;;;;;;;;5044335;28;20082;-62
2022/07/08 00:21:33;;;;;;;8.95;8.35;;;;;;;;;;5044580;28;20025;-62
2022/07/08 00:23:58;;;;;;;8.50;8.00;;;;;;;;;;5044153;28;20040;-62
2022/07/08 00:26:24;;;;;;;9.07;8.40;;;;;;;;;;5045331;28;20037;-62
2022/07/08 00:28:49;;;;;;;8.40;7.90;;;;;;;;;;5044288;28;20805;-62
2022/07/08 00:31:14;;;;;;;7.55;7.05;;;;;;;;;;5044787;28;20494;-62
2022/07/08 00:33:40;;;;;;;8.93;8.32;;;;;;;;;;5043733;28;20112;-63
2022/07/08 00:36:05;;;;;;;8.60;8.00;;;;;;;;;;5044259;28;20051;-62
2022/07/08 00:38:31;;;;;;;8.60;8.05;;;;;;;;;;5044295;28;20160;-62
2022/07/08 00:40:56;;;;;;;8.65;8.10;;;;;;;;;;5044909;28;20517;-65
2022/07/08 00:43:25;;;;;;;7.88;7.38;;;;;;;;;;5043910;28;20029;-65
2022/07/08 00:45:50;;;;;;;7.63;7.07;;;;;;;;;;5043508;28;20351;-66
2022/07/08 00:48:16;;;;;;;8.93;8.23;;;;;;;;;;5044784;28;20043;-61
2022/07/08 00:50:41;;;;;;;8.48;7.88;;;;;;;;;;5044568;28;20025;-61
2022/07/08 00:53:06;;;;;;;10.00;9.15;;;;;;;;;;5044155;28;20422;-62
2022/07/08 00:55:32;;;;;;;8.57;7.97;;;;;;;;;;5043581;28;20025;-61
2022/07/08 00:57:57;;;;;;;7.50;7.00;;;;;;;;;;5043729;28;20695;-61
2022/07/08 01:00:23;;;;;;;7.45;6.95;;;;;;;;;;5043544;28;20044;-61
2022/07/08 01:02:48;;;;;;;8.27;7.78;;;;;;;;;;5045305;28;20105;-61
2022/07/08 01:05:14;;;;;;;8.63;8.05;;;;;;;;;;5043993;28;20367;-62
2022/07/08 01:07:41;;;;;;;7.68;7.15;;;;;;;;;;5043729;28;20463;-64
2022/07/08 01:10:07;;;;;;;8.02;7.53;;;;;;;;;;5043252;28;20029;-65
2022/07/08 01:12:32;;;;;;;7.50;7.00;;;;;;;;;;5043363;28;20044;-65
2022/07/08 01:14:58;;;;;;;12.40;6.85;;;;;;;;;;5042963;28;20437;-64
2022/07/08 01:17:27;;;;;;;7.32;6.82;;;;;;;;;;5043364;28;20047;-64
2022/07/08 01:19:53;;;;;;;7.60;7.10;;;;;;;;;;5044165;28;20029;-65
2022/07/08 01:22:18;;;;;;;7.00;6.50;;;;;;;;;;5043697;28;20040;-65
2022/07/08 01:24:43;;;;;;;8.00;7.40;;;;;;;;;;5041718;28;20446;-65
2022/07/08 01:27:09;;;;;;;7.68;7.10;;;;;;;;;;5044086;28;20044;-65
2022/07/08 01:29:34;;;;;;;7.07;6.57;;;;;;;;;;5043041;28;20078;-65
2022/07/08 01:32:00;;;;;;;7.85;7.30;;;;;;;;;;5043336;28;20033;-65
2022/07/08 01:34:26;;;;;;;7.85;7.35;;;;;;;;;;5043762;28;20028;-65
2022/07/08 01:36:51;;;;;;;7.10;6.60;;;;;;;;;;5043832;28;20077;-65
2022/07/08 01:39:16;;;;;;;7.40;6.90;;;;;;;;;;5044353;28;20040;-65
2022/07/08 01:41:41;;;;;;;7.50;7.00;;;;;;;;;;5042757;28;20036;-65
2022/07/08 01:44:07;;;;;;;7.00;6.50;;;;;;;;;;5042664;28;20068;-65
2022/07/08 01:46:32;;;;;;;7.20;6.70;;;;;;;;;;5044089;28;20120;-65
2022/07/08 01:48:58;;;;;;;7.35;6.85;;;;;;;;;;5043515;28;20076;-65
2022/07/08 01:51:23;;;;;;;7.25;6.75;;;;;;;;;;5042189;28;20059;-65
2022/07/08 01:53:48;;;;;;;7.10;6.60;;;;;;;;;;5043572;28;20032;-65
2022/07/08 01:56:14;;;;;;;6.93;6.43;;;;;;;;;;5044234;28;20362;-65
2022/07/08 01:58:39;;;;;;;7.95;7.25;;;;;;;;;;5042467;28;20037;-65
2022/07/08 02:01:04;;;;;;;6.50;6.10;;;;;;;;;;5043512;28;20072;-65
2022/07/08 02:03:30;;;;;;;6.32;5.93;;;;;;;;;;5042510;28;20044;-65
2022/07/08 02:05:55;;;;;;;6.05;5.65;;;;;;;;;;5043655;28;20036;-65
2022/07/08 02:08:23;;;;;;;6.10;5.70;;;;;;;;;;5043369;28;20382;-65
2022/07/08 02:13:32;;;;;;;6.55;6.15;;;;;;;;;;5042774;28;20036;-65
2022/07/08 02:15:57;;;;;;;6.82;6.32;;;;;;;;;;5042443;28;20028;-65
2022/07/08 02:18:22;;;;;;;6.47;6.07;;;;;;;;;;5042140;28;20052;-65
2022/07/08 02:20:48;;;;;;;7.10;6.60;;;;;;;;;;5043617;28;20462;-65
2022/07/08 02:23:13;;;;;;;7.13;6.63;;;;;;;;;;5043020;28;20094;-65
2022/07/08 02:25:38;;;;;;;6.43;6.03;;;;;;;;;;5042619;28;20029;-65
2022/07/08 02:28:04;;;;;;;6.70;6.25;;;;;;;;;;5043267;28;20055;-65
2022/07/08 02:30:29;;;;;;;6.95;6.45;;;;;;;;;;5041953;28;20035;-65
2022/07/08 02:32:54;;;;;;;6.40;5.90;;;;;;;;;;5040015;28;20025;-65
2022/07/08 02:35:20;;;;;;;6.57;6.07;;;;;;;;;;5042963;28;20647;-65
2022/07/08 02:37:45;;;;;;;6.63;6.03;;;;;;;;;;5042596;28;20033;-64
2022/07/08 02:40:11;;;;;;;6.50;6.00;;;;;;;;;;5042142;28;20484;-65
2022/07/08 02:42:36;;;;;;;6.78;6.28;;;;;;;;;;5045731;28;20513;-64
2022/07/08 02:45:01;;;;;;;6.20;5.80;;;;;;;;;;5043176;28;20519;-64
2022/07/08 02:47:27;;;;;;;6.43;5.82;;;;;;;;;;5042763;28;20251;-65
2022/07/08 02:49:52;;;;;;;6.72;6.25;;;;;;;;;;5042096;28;20029;-65
2022/07/08 02:52:18;;;;;;;7.88;7.28;;;;;;;;;;5042092;28;20538;-65
2022/07/08 02:54:43;;;;;;;7.43;6.72;;;;;;;;;;5043087;28;20570;-65
2022/07/08 02:57:08;;;;;;;6.30;5.90;;;;;;;;;;5041579;28;20332;-65
2022/07/08 02:59:34;;;;;;;6.75;6.25;;;;;;;;;;5042609;28;20025;-65
2022/07/08 03:01:59;;;;;;;6.90;6.40;;;;;;;;;;5036291;28;20043;-65
2022/07/08 03:04:24;;;;;;;6.82;6.32;;;;;;;;;;5041037;28;20135;-65
2022/07/08 03:06:50;;;;;;;6.82;5.80;;;;;;;;;;5041902;28;20119;-65
2022/07/08 03:09:15;;;;;;;6.78;6.28;;;;;;;;;;5042001;28;20474;-65
2022/07/08 03:11:40;;;;;;;6.07;5.68;;;;;;;;;;5023726;28;20071;-65
2022/07/08 03:14:06;;;;;;;6.00;5.60;;;;;;;;;;5039794;28;20025;-65
2022/07/08 03:16:32;;;;;;;6.22;5.82;;;;;;;;;;5042038;28;20033;-65
2022/07/08 03:18:57;;;;;;;6.22;5.82;;;;;;;;;;5042153;28;21862;-64
2022/07/08 03:21:22;;;;;;;6.35;5.85;;;;;;;;;;5042713;28;20333;-65
2022/07/08 03:23:48;;;;;;;6.20;5.80;;;;;;;;;;5041961;28;20359;-65
2022/07/08 03:26:13;;;;;;;6.53;6.07;;;;;;;;;;5040997;28;20466;-65
2022/07/08 03:28:39;;;;;;;6.85;6.35;;;;;;;;;;5042370;28;20104;-65
2022/07/08 03:31:04;;;;;;;6.38;5.88;;;;;;;;;;5041694;28;20097;-65
2022/07/08 03:33:29;;;;;;;6.43;5.93;;;;;;;;;;5040878;28;20040;-65
2022/07/08 03:35:55;;;;;;;6.65;5.93;;;;;;;;;;5042826;28;20529;-65
2022/07/08 03:38:20;;;;;;;6.38;5.88;;;;;;;;;;5058793;28;20557;-65
2022/07/08 03:43:29;;;;;;;5.82;5.43;;;;;;;;;;5041428;28;20028;-65
2022/07/08 03:45:55;;;;;;;6.65;6.18;;;;;;;;;;5040900;28;20048;-63
2022/07/08 03:48:20;;;;;;;5.82;5.43;;;;;;;;;;5041081;28;20037;-66
2022/07/08 03:50:46;;;;;;;7.32;5.68;;;;;;;;;;5043583;28;20478;-65
2022/07/08 03:53:11;;;;;;;5.90;5.50;;;;;;;;;;5042388;28;20025;-65
2022/07/08 03:55:36;;;;;;;6.22;5.82;;;;;;;;;;5042986;28;20033;-65
2022/07/08 03:58:02;;;;;;;7.72;5.82;;;;;;;;;;5041002;28;20044;-64
2022/07/08 04:00:27;;;;;;;6.25;5.85;;;;;;;;;;5041100;28;20115;-63
2022/07/08 04:02:52;;;;;;;5.70;5.30;;;;;;;;;;5043181;28;20083;-65
2022/07/08 04:05:18;;;;;;;6.38;5.90;;;;;;;;;;5041782;28;20424;-67
2022/07/08 04:07:43;;;;;;;6.50;5.90;;;;;;;;;;5042462;28;20495;-67
2022/07/08 04:10:09;;;;;;;7.55;7.05;;;;;;;;;;5044852;28;20037;-68
2022/07/08 04:12:34;;;;;;;6.18;5.78;;;;;;;;;;5045025;28;20029;-66
2022/07/08 04:15:00;;;;;;;6.10;5.63;;;;;;;;;;5046298;28;20033;-66
2022/07/08 04:17:25;;;;;;;6.43;5.97;;;;;;;;;;5044645;28;20622;-67
2022/07/08 04:19:50;;;;;;;6.53;6.03;;;;;;;;;;5046237;28;20040;-66
2022/07/08 04:22:16;;;;;;;6.80;6.30;;;;;;;;;;5046581;28;20056;-67
2022/07/08 04:24:41;;;;;;;6.78;6.28;;;;;;;;;;5045682;28;20418;-67
2022/07/08 04:27:07;;;;;;;6.85;6.35;;;;;;;;;;5044504;28;20028;-67
2022/07/08 04:29:32;;;;;;;6.75;6.25;;;;;;;;;;5043980;28;20115;-66
2022/07/08 04:31:57;;;;;;;6.05;5.65;;;;;;;;;;5044040;28;20124;-67
2022/07/08 04:34:23;;;;;;;6.70;6.20;;;;;;;;;;5043933;28;20100;-67
2022/07/08 04:36:48;;;;;;;6.85;6.35;;;;;;;;;;5044308;28;20029;-67
2022/07/08 04:39:13;;;;;;;7.70;6.95;;;;;;;;;;5045629;28;20064;-66
2022/07/08 04:41:38;;;;;;;5.68;5.28;;;;;;;;;;5044231;28;20039;-67
2022/07/08 04:44:04;;;;;;;7.15;6.55;;;;;;;;;;5045831;28;20041;-66
2022/07/08 04:46:29;;;;;;;6.85;6.25;;;;;;;;;;5046270;28;20060;-67
2022/07/08 04:48:54;;;;;;;14.50;5.47;;;;;;;;;;5044968;28;20024;-66
2022/07/08 04:51:20;;;;;;;6.20;5.80;;;;;;;;;;5044860;28;20122;-66
2022/07/08 04:53:45;;;;;;;6.45;6.00;;;;;;;;;;5043786;28;20056;-66
2022/07/08 04:56:10;;;;;;;5.90;5.50;;;;;;;;;;5043873;28;20028;-66
2022/07/08 04:58:36;;;;;;;5.80;5.40;;;;;;;;;;5044832;28;20040;-66
2022/07/08 05:01:02;;;;;;;6.10;5.65;;;;;;;;;;5044497;28;20958;-65
2022/07/08 05:03:27;;;;;;;5.45;5.05;;;;;;;;;;5044710;28;20032;-66
2022/07/08 05:05:52;;;;;;;5.55;5.15;;;;;;;;;;5044953;28;20539;-65
2022/07/08 05:08:18;;;;;;;5.40;5.00;;;;;;;;;;5045021;28;20120;-65
2022/07/08 05:10:43;;;;;;;5.60;5.20;;;;;;;;;;5043429;28;20040;-65
2022/07/08 05:13:09;;;;;;;6.43;6.03;;;;;;;;;;5044592;28;20027;-65
2022/07/08 05:15:34;;;;;;;5.18;4.78;;;;;;;;;;5043973;28;20068;-66
2022/07/08 05:18:00;;;;;;;5.43;5.03;;;;;;;;;;5044069;28;20033;-65
2022/07/08 05:20:25;;;;;;;6.20;5.80;;;;;;;;;;5043429;28;20069;-65
2022/07/08 05:22:51;;;;;;;5.57;5.18;;;;;;;;;;5042638;28;20037;-65
2022/07/08 05:25:16;;;;;;;6.40;5.90;;;;;;;;;;5042682;28;20703;-65
2022/07/08 05:27:42;;;;;;;6.90;6.40;;;;;;;;;;5043634;28;20118;-66
2022/07/08 05:30:10;;;;;;;6.03;5.63;;;;;;;;;;5043544;28;20493;-66
2022/07/08 05:32:35;;;;;;;7.13;6.63;;;;;;;;;;5041443;28;20305;-64
2022/07/08 05:35:02;;;;;;;6.63;6.20;;;;;;;;;;5044563;28;20391;-63
2022/07/08 05:37:29;;;;;;;9.32;8.32;;;;;;;;;;5041948;28;20043;-66
2022/07/08 05:39:54;;;;;;;7.65;7.15;;;;;;;;;;5044381;28;20033;-65
2022/07/08 05:42:20;;;;;;;7.47;6.93;;;;;;;;;;5042878;28;20041;-65
2022/07/08 05:44:45;;;;;;;9.00;8.40;;;;;;;;;;5042027;28;20115;-65
2022/07/08 05:47:10;;;;;;;8.68;8.13;;;;;;;;;;5042068;28;20243;-65
2022/07/08 05:49:37;;;;;;;8.60;8.10;;;;;;;;;;5043117;28;20103;-65
2022/07/08 05:52:04;;;;;;;8.90;8.30;;;;;;;;;;5041880;28;20613;-65
2022/07/08 05:54:30;;;;;;;8.10;7.60;;;;;;;;;;5042159;28;20075;-65
2022/07/08 05:56:55;;;;;;;8.27;7.78;;;;;;;;;;5040964;28;20064;-65
2022/07/08 05:59:20;;;;;;;9.27;8.68;;;;;;;;;;5042933;28;20116;-64
2022/07/08 06:01:46;;;;;;;10.10;9.40;;;;;;;;;;5042287;28;20044;-66
2022/07/08 06:04:11;;;;;;;9.68;9.07;;;;;;;;;;5040793;28;20032;-65
2022/07/08 06:06:37;;;;;;;8.77;8.18;;;;;;;;;;5042645;28;20025;-65
2022/07/08 06:09:02;;;;;;;9.32;8.73;;;;;;;;;;5042480;28;20035;-65
2022/07/08 06:11:28;;;;;;;8.45;7.72;;;;;;;;;;5043000;28;20048;-65
2022/07/08 06:13:54;;;;;;;7.25;6.75;;;;;;;;;;5043687;28;20028;-64
2022/07/08 06:16:20;;;;;;;6.85;6.35;;;;;;;;;;5042688;28;20032;-65
2022/07/08 06:18:45;;;;;;;8.70;8.00;;;;;;;;;;5042727;28;20429;-65
2022/07/08 06:21:11;;;;;;;8.40;7.50;;;;;;;;;;5041131;28;20041;-65
2022/07/08 06:23:36;;;;;;;7.13;6.63;;;;;;;;;;5041815;28;20483;-64
2022/07/08 06:26:01;;;;;;;7.50;7.00;;;;;;;;;;5042728;28;20529;-65
2022/07/08 06:28:27;;;;;;;7.60;7.10;;;;;;;;;;5041955;28;20033;-63
2022/07/08 06:30:52;;;;;;;7.72;7.22;;;;;;;;;;5041748;28;20029;-63
2022/07/08 06:33:17;;;;;;;14.13;7.20;;;;;;;;;;5038997;28;20037;-64
2022/07/08 06:35:43;;;;;;;8.27;7.78;;;;;;;;;;5041668;28;20025;-65
2022/07/08 06:38:08;;;;;;;9.23;8.63;;;;;;;;;;5043278;28;20029;-65
2022/07/08 06:40:34;;;;;;;6.82;6.32;;;;;;;;;;5042298;28;20029;-65
2022/07/08 06:42:59;;;;;;;7.30;6.80;;;;;;;;;;5041350;28;20639;-64
2022/07/08 06:45:25;;;;;;;7.25;6.75;;;;;;;;;;5040654;28;20044;-64
2022/07/08 06:47:50;;;;;;;6.90;6.43;;;;;;;;;;5043456;28;20045;-65
2022/07/08 06:50:15;;;;;;;7.20;6.70;;;;;;;;;;5041460;28;20051;-64
2022/07/08 06:52:41;;;;;;;8.10;7.50;;;;;;;;;;5041600;28;20021;-65
2022/07/08 06:55:06;;;;;;;8.43;7.93;;;;;;;;;;5041184;28;20033;-67
2022/07/08 06:57:32;;;;;;;8.98;8.38;;;;;;;;;;5043120;28;20032;-66
2022/07/08 06:59:57;;;;;;;7.47;6.97;;;;;;;;;;5039365;28;20640;-64
2022/07/08 07:02:23;;;;;;;7.70;7.20;;;;;;;;;;5038986;28;20429;-65
2022/07/08 07:04:48;;;;;;;8.40;7.88;;;;;;;;;;5040645;28;20478;-65
2022/07/08 07:07:14;;;;;;;7.88;7.38;;;;;;;;;;5042129;28;20035;-65
2022/07/08 07:09:39;;;;;;;7.35;6.85;;;;;;;;;;5041340;28;20534;-65
2022/07/08 07:12:09;;;;;;;6.35;5.95;;;;;;;;;;5041385;28;20116;-64
2022/07/08 07:14:35;;;;;;;7.30;6.80;;;;;;;;;;5039959;28;20043;-64
2022/07/08 07:17:00;;;;;;;7.68;7.18;;;;;;;;;;5041815;28;20040;-64
2022/07/08 07:19:26;;;;;;;6.97;6.47;;;;;;;;;;5036240;28;20466;-69
2022/07/08 07:21:52;;;;;;;6.68;6.20;;;;;;;;;;5042134;28;20277;-69
2022/07/08 07:24:17;;;;;;;7.10;6.60;;;;;;;;;;5040951;28;20033;-69
2022/07/08 07:26:43;;;;;;;6.00;5.60;;;;;;;;;;5040253;28;20041;-69
2022/07/08 07:29:09;;;;;;;7.32;6.82;;;;;;;;;;5040093;28;20037;-69
2022/07/08 07:31:35;;;;;;;5.97;5.57;;;;;;;;;;5038952;28;20448;-69
2022/07/08 07:34:01;;;;;;;6.80;6.32;;;;;;;;;;5042729;28;20013;-69
2022/07/08 07:36:26;;;;;;;8.10;7.50;;;;;;;;;;5040835;28;20041;-69
2022/07/08 07:38:52;;;;;;;7.60;7.10;;;;;;;;;;5042578;28;20025;-69
2022/07/08 07:41:17;;;;;;;7.07;6.57;;;;;;;;;;5042041;28;20033;-69
2022/07/08 07:43:42;;;;;;;12.82;7.68;;;;;;;;;;5043995;28;20039;-69
2022/07/08 07:46:07;;;;;;;10.20;9.38;;;;;;;;;;5045394;28;20037;-69
2022/07/08 07:48:33;;;;;;;9.60;9.00;;;;;;;;;;5043050;28;20517;-69
2022/07/08 07:50:58;;;;;;;9.13;8.52;;;;;;;;;;5045870;28;20057;-69
2022/07/08 07:53:24;;;;;;;8.35;7.75;;;;;;;;;;5044251;28;20367;-69
2022/07/08 07:55:50;;;;;;;9.02;8.43;;;;;;;;;;5045073;28;20013;-70
2022/07/08 07:58:15;;;;;;;10.18;9.48;;;;;;;;;;5041602;28;20159;-69
2022/07/08 08:00:40;;;;;;;9.25;8.65;;;;;;;;;;5044675;28;20035;-70
2022/07/08 08:03:06;;;;;;;7.75;7.25;;;;;;;;;;5044779;28;20021;-70
2022/07/08 08:05:31;;;;;;;8.40;7.90;;;;;;;;;;5044017;28;20450;-71
2022/07/08 08:07:57;;;;;;;8.07;7.57;;;;;;;;;;5045212;28;20489;-70
2022/07/08 08:10:22;;;;;;;8.82;8.25;;;;;;;;;;5044814;28;20425;-69
2022/07/08 08:12:47;;;;;;;9.38;8.63;;;;;;;;;;5044931;28;20488;-70
2022/07/08 08:15:13;;;;;;;8.73;8.13;;;;;;;;;;5042249;28;20079;-69
2022/07/08 08:17:39;;;;;;;8.93;8.32;;;;;;;;;;5043530;28;20079;-69
2022/07/08 08:20:05;;;;;;;9.65;8.65;;;;;;;;;;5044422;28;20017;-69
2022/07/08 08:22:32;;;;;;;8.90;8.30;;;;;;;;;;5043636;28;20064;-69
2022/07/08 08:24:57;;;;;;;8.93;8.35;;;;;;;;;;5044255;28;20036;-69
2022/07/08 08:27:22;;;;;;;10.15;9.55;;;;;;;;;;5043523;28;20024;-69
2022/07/08 08:29:48;;;;;;;11.63;10.93;;;;;;;;;;5043696;28;20025;-69
2022/07/08 08:32:13;;;;;;;10.48;9.68;;;;;;;;;;5045163;28;20025;-70
2022/07/08 08:34:38;;;;;;;10.15;9.55;;;;;;;;;;5044594;28;20099;-69
2022/07/08 08:37:04;;;;;;;9.95;9.35;;;;;;;;;;5044737;28;20043;-69
2022/07/08 08:39:29;;;;;;;10.35;9.75;;;;;;;;;;5044104;28;20041;-69
2022/07/08 08:41:54;;;;;;;10.00;9.40;;;;;;;;;;5059949;28;20060;-69
2022/07/08 08:44:20;;;;;;;11.23;10.52;;;;;;;;;;5043973;28;20303;-69
2022/07/08 08:46:46;;;;;;;10.55;9.95;;;;;;;;;;5044781;28;20367;-69
2022/07/08 08:49:11;;;;;;;12.13;11.43;;;;;;;;;;5051481;28;20068;-70
2022/07/08 08:51:39;;;;;;;11.90;11.20;;;;;;;;;;5043403;28;20821;-70
2022/07/08 08:54:06;;;;;;;10.40;9.77;;;;;;;;;;5043289;28;20108;-70
2022/07/08 08:56:31;;;;;;;10.40;9.80;;;;;;;;;;5045385;28;20051;-70
2022/07/08 08:58:58;;;;;;;11.45;10.75;;;;;;;;;;5044305;28;20028;-69
2022/07/08 09:01:23;;;;;;;10.65;10.00;;;;;;;;;;5046250;28;20039;-70
2022/07/08 09:03:49;;;;;;;11.60;10.90;;;;;;;;;;5045920;28;20342;-70
2022/07/08 09:06:14;;;;;;;13.38;12.57;;;;;;;;;;5047554;28;20024;-69
2022/07/08 09:08:40;;;;;;;13.75;12.95;;;;;;;;;;5045553;28;20845;-69
2022/07/08 09:11:06;;;;;;;13.98;13.18;;;;;;;;;;5047355;28;20334;-69
2022/07/08 09:13:31;;;;;;;15.80;14.90;;;;;;;;;;5047989;28;20118;-69
2022/07/08 09:15:58;;;;;;;14.52;13.73;;;;;;;;;;5047002;28;20029;-69
2022/07/08 09:18:32;;;;;;;13.30;12.50;;;;;;;;;;5047237;28;20036;-69
2022/07/08 09:20:58;;;;;;;14.10;13.30;;;;;;;;;;5047009;28;20086;-69
2022/07/08 09:23:32;;;;;;;11.20;10.50;;;;;;;;;;5046288;28;20329;-69
2022/07/08 09:26:00;;;;;;;13.80;13.00;;;;;;;;;;5046840;28;20029;-69
2022/07/08 09:28:28;;;;;;;13.13;12.32;;;;;;;;;;5045324;28;20151;-69
2022/07/08 09:30:55;;;;;;;12.50;11.80;;;;;;;;;;5047894;28;20338;-69
2022/07/08 09:33:21;;;;;;;12.05;11.35;;;;;;;;;;5046722;28;20067;-70
2022/07/08 09:35:50;;;;;;;13.48;12.68;;;;;;;;;;5046271;28;20029;-70
2022/07/08 09:38:18;;;;;;;13.70;12.90;;;;;;;;;;5047650;28;20032;-70
2022/07/08 09:40:57;;;;;;;15.65;14.77;;;;;;;;;;5046288;28;20111;-69
2022/07/08 09:43:24;;;;;;;14.32;13.52;;;;;;;;;;5046636;28;20028;-69
2022/07/08 09:45:49;;;;;;;17.02;16.08;;;;;;;;;;5045305;28;20029;-69
2022/07/08 09:48:14;;;;;;;24.80;23.30;;;;;;;;;;5046623;28;20098;-70
2022/07/08 09:50:42;;;;;;;17.85;16.85;;;;;;;;;;5045197;28;20048;-70
2022/07/08 09:53:27;;;;;;;24.73;23.42;;;;;;;;;;5046105;28;20777;-70
2022/07/08 09:55:54;;;;;;;19.52;18.30;;;;;;;;;;5046642;28;20118;-69
2022/07/08 09:58:24;;;;;;;26.55;24.85;;;;;;;;;;5045556;28;20482;-69
2022/07/08 10:00:52;;;;;;;21.00;19.90;;;;;;;;;;5047130;28;20033;-69
2022/07/08 10:03:18;;;;;;;24.13;22.83;;;;;;;;;;5027021;28;20033;-69
2022/07/08 10:05:45;;;;;;;31.65;30.02;;;;;;;;;;5045360;28;20127;-69
2022/07/08 10:08:11;;;;;;;35.05;33.25;;;;;;;;;;5046822;28;20041;-69
2022/07/08 10:10:38;;;;;;;36.08;34.10;;;;;;;;;;5046019;28;20039;-69
2022/07/08 10:13:04;;;;;;;38.70;36.70;;;;;;;;;;5044596;28;20033;-69
2022/07/08 10:15:31;;;;;;;40.33;38.25;;;;;;;;;;5045752;28;20033;-69
2022/07/08 10:18:04;;;;;;;44.67;42.28;;;;;;;;;;5046452;28;20052;-68
2022/07/08 10:20:32;;;;;;;43.83;41.60;;;;;;;;;;5044892;28;20036;-67
2022/07/08 10:23:01;;;;;;;47.30;44.90;;;;;;;;;;5045349;28;20021;-68
2022/07/08 10:25:27;;;;;;;42.45;40.25;;;;;;;;;;5045787;28;20406;-68
2022/07/08 10:28:04;;;;;;;43.50;41.10;;;;;;;;;;5046561;28;20052;-68
2022/07/08 10:30:43;;;;;;;42.22;40.08;;;;;;;;;;5045423;28;20374;-69
2022/07/08 10:33:10;;;;;;;42.63;40.42;;;;;;;;;;5045481;28;20025;-68
2022/07/08 10:36:04;;;;;;;43.30;41.13;;;;;;;;;;5045672;28;20108;-68
2022/07/08 10:38:35;;;;;;;40.38;38.35;;;;;;;;;;5045440;28;20056;-68
2022/07/08 10:41:02;;;;;;;39.22;37.25;;;;;;;;;;5046039;28;20111;-66
2022/07/08 10:43:28;;;;;;;39.90;37.85;;;;;;;;;;5044440;28;20070;-68
2022/07/08 10:46:14;;;;;;;35.80;33.97;;;;;;;;;;5044971;28;20056;-68
2022/07/08 10:48:40;;;;;;;35.42;33.53;;;;;;;;;;5045415;28;20044;-68
2022/07/08 10:51:06;;;;;;;36.47;34.63;;;;;;;;;;5045486;28;20098;-68
2022/07/08 10:53:47;;;;;;;41.80;39.67;;;;;;;;;;5045314;28;20075;-68
2022/07/08 10:56:53;;;;;;;43.22;40.95;;;;;;;;;;5045905;28;20059;-68
2022/07/08 10:59:30;;;;;;;48.45;46.03;;;;;;;;;;5045556;28;20067;-68
2022/07/08 11:02:13;;;;;;;46.33;44.00;;;;;;;;;;5044651;28;20029;-68
2022/07/08 11:04:39;;;;;;;47.90;45.50;;;;;;;;;;5044701;28;20235;-67
2022/07/08 11:07:32;;;;;;;71.07;67.53;;;;;;;;;;5045780;28;20116;-67
2022/07/08 11:10:11;;;;;;;59.97;56.97;;;;;;;;;;5045360;28;20427;-67
2022/07/08 11:12:39;;;;;;;66.03;62.63;;;;;;;;;;5044756;28;20395;-69
2022/07/08 11:15:09;;;;;;;70.97;67.32;;;;;;;;;;5042694;28;20446;-67
2022/07/08 11:17:36;;;;;;;;;;;;;;;;;;5047406;28;20037;-67
2022/07/08 11:20:04;;;;;;;60.33;57.33;;;;;;;;;;5048475;28;20013;-67
2022/07/08 11:22:33;;;;;;;78.43;74.53;;;;;;;;;;5048533;28;20639;-67
2022/07/08 11:24:59;;;;;;;77.43;73.53;;;;;;;;;;5049663;28;20120;-67
2022/07/08 11:27:26;;;;;;;76.05;72.25;;;;;;;;;;5046680;28;20277;-67
2022/07/08 11:29:53;;;;;;;72.45;68.85;;;;;;;;;;5046846;28;20263;-64
2022/07/08 11:32:20;;;;;;;72.28;68.65;;;;;;;;;;5048278;28;20148;-66
2022/07/08 11:34:47;;;;;;;53.28;50.58;;;;;;;;;;5047311;28;20108;-68
2022/07/08 11:37:12;;;;;;;83.97;79.80;;;;;;;;;;5048546;28;20029;-67
2022/07/08 11:39:38;;;;;;;66.68;63.25;;;;;;;;;;5047864;28;20458;-67
2022/07/08 11:42:04;;;;;;;68.78;65.32;;;;;;;;;;5048469;28;20183;-68
2022/07/08 11:44:30;;;;;;;59.42;56.42;;;;;;;;;;5048816;28;20225;-68
2022/07/08 11:46:56;;;;;;;58.65;55.70;;;;;;;;;;5050136;28;20222;-67
2022/07/08 11:49:23;;;;;;;60.35;57.35;;;;;;;;;;5044582;28;22023;-67
2022/07/08 11:51:50;;;;;;;44.97;42.65;;;;;;;;;;5047892;28;20020;-67
2022/07/08 11:54:19;;;;;;;35.60;33.75;;;;;;;;;;5047827;28;20039;-65
2022/07/08 11:56:45;;;;;;;44.00;41.78;;;;;;;;;;5048254;28;20466;-66
2022/07/08 11:59:11;;;;;;;64.03;60.83;;;;;;;;;;5046494;28;20036;-67
2022/07/08 12:01:38;;;;;;;53.53;50.83;;;;;;;;;;5046775;28;20048;-67
2022/07/08 12:04:05;;;;;;;32.80;31.10;;;;;;;;;;5046945;28;20044;-66
2022/07/08 12:06:31;;;;;;;39.28;37.20;;;;;;;;;;5047104;28;20588;-66
2022/07/08 12:08:56;;;;;;;37.95;36.00;;;;;;;;;;5049972;28;20028;-66
2022/07/08 12:11:25;;;;;;;41.28;39.15;;;;;;;;;;5047990;28;20028;-66
2022/07/08 12:13:53;;;;;;;50.63;48.08;;;;;;;;;;5047297;28;20418;-67
2022/07/08 12:16:28;;;;;;;48.78;46.33;;;;;;;;;;5047990;28;20423;-66
2022/07/08 12:18:54;;;;;;;34.45;32.67;;;;;;;;;;5046441;28;20116;-63
2022/07/08 12:21:20;;;;;;;39.20;37.20;;;;;;;;;;5046547;28;20470;-63
2022/07/08 12:23:56;;;;;;;43.33;41.15;;;;;;;;;;5047484;28;20114;-65
2022/07/08 12:26:22;;;;;;;52.08;49.47;;;;;;;;;;5046658;28;20124;-64
2022/07/08 12:28:47;;;;;;;38.88;36.88;;;;;;;;;;5046303;28;20701;-60
2022/07/08 12:31:37;;;;;;;50.17;47.67;;;;;;;;;;5046921;28;20473;-60
2022/07/08 12:34:07;;;;;;;48.65;46.08;;;;;;;;;;5046406;28;20162;-61
2022/07/08 12:36:33;;;;;;;48.33;45.90;;;;;;;;;;5047280;28;20024;-61
2022/07/08 12:39:20;;;;;;;39.65;37.65;;;;;;;;;;5047763;28;20039;-63
2022/07/08 12:42:04;;;;;;;43.95;41.70;;;;;;;;;;5045855;28;20028;-63
2022/07/08 12:44:47;;;;;;;30.92;29.33;;;;;;;;;;5046625;28;20033;-60
2022/07/08 12:47:13;;;;;;;31.67;30.02;;;;;;;;;;5046765;28;20021;-60
2022/07/08 12:49:41;;;;;;;41.28;39.17;;;;;;;;;;5047417;28;20095;-60
2022/07/08 12:52:09;;;;;;;42.92;40.72;;;;;;;;;;5048194;28;20033;-60
2022/07/08 12:54:35;;;;;;;45.20;42.90;;;;;;;;;;5046590;28;20025;-63
2022/07/08 12:57:02;;;;;;;47.95;45.15;;;;;;;;;;5048284;28;20040;-61
2022/07/08 12:59:28;;;;;;;42.58;40.42;;;;;;;;;;5047495;28;20036;-61
2022/07/08 13:01:55;;;;;;;34.05;32.28;;;;;;;;;;5047468;28;20083;-60
2022/07/08 13:04:21;;;;;;;36.70;34.80;;;;;;;;;;5048249;28;20461;-62
2022/07/08 13:06:53;;;;;;;35.92;33.95;;;;;;;;;;5048017;28;20039;-61
2022/07/08 13:09:18;;;;;;;37.25;35.33;;;;;;;;;;5047708;28;20032;-61
2022/07/08 13:11:44;;;;;;;39.17;37.17;;;;;;;;;;5045423;28;20020;-61
2022/07/08 13:14:10;;;;;;;39.88;37.55;;;;;;;;;;5047881;28;20028;-62
2022/07/08 13:16:36;;;;;;;38.92;36.85;;;;;;;;;;5046793;28;20186;-62
2022/07/08 13:19:03;;;;;;;44.90;42.60;;;;;;;;;;5047774;28;20097;-61
2022/07/08 13:21:29;;;;;;;45.55;43.28;;;;;;;;;;5063171;28;20040;-61
2022/07/08 13:23:54;;;;;;;48.50;46.05;;;;;;;;;;5047503;28;20028;-62
2022/07/08 13:26:20;;;;;;;42.63;40.42;;;;;;;;;;5047523;28;20024;-60
2022/07/08 13:28:45;;;;;;;48.45;45.78;;;;;;;;;;5045432;28;20041;-61
2022/07/08 13:31:12;;;;;;;55.05;52.25;;;;;;;;;;5046100;28;20091;-61
2022/07/08 13:33:37;;;;;;;59.88;56.88;;;;;;;;;;5046235;28;20059;-61
2022/07/08 13:36:03;;;;;;;59.60;56.63;;;;;;;;;;5045829;28;20021;-63
2022/07/08 13:38:29;;;;;;;67.78;64.40;;;;;;;;;;5046593;28;20084;-63
2022/07/08 13:40:54;;;;;;;73.18;69.53;;;;;;;;;;5047025;28;20390;-62
2022/07/08 13:43:20;;;;;;;50.10;47.42;;;;;;;;;;5047007;28;20371;-62
2022/07/08 13:45:45;;;;;;;46.40;44.10;;;;;;;;;;5045097;28;20040;-63
2022/07/08 13:48:11;;;;;;;45.38;43.05;;;;;;;;;;5047001;28;20114;-62
2022/07/08 13:50:37;;;;;;;53.15;50.50;;;;;;;;;;5044392;28;20429;-63
2022/07/08 13:53:02;;;;;;;44.97;42.67;;;;;;;;;;5046213;28;20214;-63
2022/07/08 13:55:28;;;;;;;53.30;50.60;;;;;;;;;;5046960;28;20056;-62
2022/07/08 13:57:53;;;;;;;47.30;44.90;;;;;;;;;;5046661;28;20032;-62
2022/07/08 14:00:18;;;;;;;68.32;64.90;;;;;;;;;;5047333;28;20124;-64
2022/07/08 14:02:44;;;;;;;50.22;47.70;;;;;;;;;;5045660;28;20098;-64
2022/07/08 14:05:09;;;;;;;53.08;50.42;;;;;;;;;;5045446;28;20025;-63
2022/07/08 14:07:35;;;;;;;46.95;44.58;;;;;;;;;;5042834;28;20500;-64
2022/07/08 14:10:00;;;;;;;45.95;43.55;;;;;;;;;;5043464;28;20147;-64
2022/07/08 14:12:25;;;;;;;45.88;43.55;;;;;;;;;;5045241;28;20032;-64
2022/07/08 14:14:51;;;;;;;54.63;51.88;;;;;;;;;;5046583;28;20104;-64
2022/07/08 14:17:17;;;;;;;50.53;47.97;;;;;;;;;;5045158;28;20362;-64
2022/07/08 14:19:42;;;;;;;59.92;56.92;;;;;;;;;;5045274;28;20456;-64
2022/07/08 14:22:08;;;;;;;54.60;51.85;;;;;;;;;;5044427;28;20440;-65
2022/07/08 14:24:34;;;;;;;74.65;70.90;;;;;;;;;;5043375;28;20029;-64
2022/07/08 14:26:59;;;;;;;68.95;65.53;;;;;;;;;;5043800;28;20383;-64
2022/07/08 14:29:25;;;;;;;91.28;86.80;;;;;;;;;;5045054;28;20048;-63
2022/07/08 14:31:50;;;;;;;110.28;104.85;;;;;;;;;;5045230;28;20064;-64
2022/07/08 14:34:16;;;;;;;110.10;104.70;;;;;;;;;;5044268;28;20098;-63
2022/07/08 14:36:42;;;;;;;95.20;90.50;;;;;;;;;;5045505;28;20071;-64